Antioch, South Carolina
Current Conditions -  °F | °C
As of 1:15 PM on Thursday 23 Oct 2014 (Local Time) from KCDN Reporting Station
Clear Clear  
Wind Chill: 18°   Ceiling: Unl
Heat Index: 18°   Visibility: 10mi
Dew Point:   Wind: 7mph
Humidity: 40%   Direction: 310°NW
Pressure: 30.06"   Gusts: NA
Location:  34.2974°N, 80.6089°W
Report Text: KCDN 231715Z AUTO 31006KT 10SM CLR 18/04 A3006 RMK AO2 TSNO
Loading
Personal Weather Stations






























Interactive Weather Map New forecast layout! Learn more

10-Day Weather Forecast

Advertisements
Track Severe Weather on mobile